Flight Track Log - Related Links

Times and Time Zones

All times are in EDT time to prevent confusion due to time zone crossing. See the N2863W flight status page for this flight to view local times or setup timezone preferences in your user account.

Time Position Orientation Groundspeed Altitude Reporting Facility
EDT Latitude Longitude Course Direction KTS MPH feet Rate Location/Type
Thu 12:54:00 PM 39.7167 -86.3000 142° Southeast 79 91 1,100  Level Indianapolis TRACON
Thu 12:55:18 PM 39.6833 -86.2667 142° Southeast 95 109 2,400 917 Climbing Indianapolis TRACON
Thu 12:56:24 PM 39.6667 -86.2333 123° Southeast 97 112 3,300 810 Climbing Indianapolis TRACON
Thu 12:57:24 PM 39.6667 -86.2000 90° East 124 143 4,100 800 Climbing Indianapolis TRACON
Thu 12:58:24 PM 39.6667 -86.1500 90° East 122 140 4,900 429 Climbing Indianapolis TRACON
Thu 12:59:30 PM 39.6667 -86.1000 90° East 156 180 5,000 70 Climbing Indianapolis TRACON
Thu 12:59:50 PM 39.6636 -86.0806 102° East 148 170 5,000 -48 Level Indianapolis Center
Thu 01:01:36 PM 39.6667 -85.9667 88° East 177 204 4,900  Descending Indianapolis TRACON
Thu 01:02:30 PM 39.6667 -85.9167 90° East 175 201 5,000 53 Climbing Indianapolis TRACON
Thu 01:03:30 PM 39.6500 -85.8500 108° East 175 201 5,000  Level Indianapolis TRACON
Thu 01:04:30 PM 39.6500 -85.7833 90° East 176 203 5,000  Level Indianapolis TRACON
Thu 01:05:25 PM 39.6500 -85.7333 90° East 176 203 5,000  Level Indianapolis TRACON
Thu 01:06:19 PM 39.6500 -85.6667 90° East 172 198 5,000 -53 Level Indianapolis TRACON
Thu 01:07:19 PM 39.6500 -85.6000 90° East 172 198 4,900  Descending Indianapolis TRACON
Thu 01:08:19 PM 39.6500 -85.5500 90° East 169 194 5,000 43 Climbing Indianapolis TRACON
Thu 01:09:37 PM 39.6500 -85.4667 90° East 178 205 5,000  Level Indianapolis TRACON
Thu 01:10:37 PM 39.6500 -85.4000 90° East 177 204 5,000 52 Level Indianapolis TRACON
Thu 01:11:32 PM 39.6381 -85.3461 106° East 175 201 5,100 58 Climbing Indianapolis Center
Thu 01:12:21 PM 39.6383 -85.2972 90° East 172 198 5,100  Level Indianapolis Center
Thu 01:13:22 PM 39.6353 -85.2372 94° East 170 196 5,100  Level Indianapolis Center
Thu 01:14:35 PM 39.6333 -85.1636 92° East 168 193 5,100  Level Indianapolis Center
Thu 01:15:30 PM 39.6300 -85.1061 94° East 172 198 5,100 -98 Level Indianapolis Center
Thu 01:16:37 PM 39.6258 -85.0322 94° East 180 207 4,900 -47 Descending Indianapolis Center
Thu 01:17:38 PM 39.6231 -84.9669 93° East 181 208 5,000 74 Climbing Indianapolis Center
Thu 01:17:58 PM 39.6225 -84.9517 93° East 185 213 5,000  Level Indianapolis Center
Thu 01:18:33 PM 39.6211 -84.9150 93° East 164 189 5,000 -97 Level Indianapolis Center
Thu 01:19:00 PM 39.6219 -84.8919 87° East 165 190 4,900 -400 Descending Indianapolis Center
Thu 01:19:33 PM 39.6183 -84.8494 96° East 178 205 4,600 -484 Descending Indianapolis Center
Thu 01:20:02 PM 39.6175 -84.8269 93° East 173 199 4,400 -448 Descending Indianapolis Center
Thu 01:20:40 PM 39.6136 -84.7811 96° East 182 209 4,100 -393 Descending Indianapolis Center
Thu 01:21:03 PM 39.6136 -84.7614 90° East 179 206 4,000 -98 Descending Indianapolis Center
Thu 01:21:41 PM 39.6108 -84.7156 94° East 172 198 4,000 97 Level Indianapolis Center
Thu 01:22:05 PM 39.6119 -84.7011 84° East 173 199 4,100  Climbing Indianapolis Center
Thu 01:22:42 PM 39.6094 -84.6558 94° East 161 185 4,000  Descending Indianapolis Center
Thu 01:23:07 PM 39.6092 -84.6325 91° East 165 190 4,100 -393 Climbing Indianapolis Center
Thu 01:23:43 PM 39.6100 -84.5989 88° East 162 186 3,600 -871 Descending Indianapolis Center
Thu 01:24:09 PM 39.6103 -84.5719 89° East 165 190 3,200 -655 Descending Indianapolis Center
Thu 01:24:38 PM 39.6128 -84.5397 84° East 178 205 3,000 -98 Descending Indianapolis Center
Thu 01:25:10 PM 39.6144 -84.5089 86° East 171 197 3,100 90 Climbing Indianapolis Center
Thu 01:25:45 PM 39.6172 -84.4833 82° East 139 160 3,100  Level Indianapolis Center
Thu 01:26:12 PM 39.6175 -84.4606 89° East 150 173 3,100  Level Indianapolis Center
Thu 01:28:00 PM 39.6021 -84.3575 101° East  Level FlightAware
Thu 01:35:00 PM 39.5833 -84.2167 90° East  Level FlightAware
Thu 01:36:00 PM 39.5890 -84.2249 90° East  Level Estimated

Login

Don't have an account? Register now (free) for customized features, flight alerts, and more!